Time;durP1;ratioP1;P1;durP2;ratioP2;P2;SDS_P1;SDS_P2;PMS_P1;PMS_P2;Temp;Humidity;BMP_temperature;BMP_pressure;BME280_temperature;BME280_humidity;BME280_pressure;Samples;Min_cycle;Max_cycle;Signal;HPM_P1;HPM_P2
2022/05/14 00:01:18;;;;;;;2.90;2.55;;;;;;;12.30;69.79;101265.88;4922588;28;20047;-86
2022/05/14 00:03:50;;;;;;;2.45;2.25;;;;;;;12.33;69.68;101262.38;4984130;28;20048;-86
2022/05/14 00:06:21;;;;;;;3.75;2.20;;;;;;;12.34;69.61;101262.34;4902197;28;20051;-85
2022/05/14 00:08:49;;;;;;;4.78;2.65;;;;;;;12.39;69.55;101259.72;4902235;28;20044;-84
2022/05/14 00:14:03;;;;;;;3.85;2.50;;;;;;;12.41;69.54;101260.56;4911743;28;20051;-86
2022/05/14 00:16:32;;;;;;;5.85;2.60;;;;;;;12.39;69.63;101260.56;4915729;28;20761;-89
2022/05/14 00:19:02;;;;;;;11.63;2.88;;;;;;;12.33;69.88;101252.75;4899972;28;20064;-87
2022/05/14 00:21:29;;;;;;;7.72;2.95;;;;;;;12.26;70.15;101255.44;4926417;28;20056;-87
2022/05/14 00:23:58;;;;;;;5.90;2.38;;;;;;;12.21;70.21;101247.56;4958837;28;20272;-88
2022/05/14 00:26:25;;;;;;;2.53;2.33;;;;;;;12.13;70.67;101249.38;4930754;28;20432;-86
2022/05/14 00:29:05;;;;;;;7.20;2.42;;;;;;;12.03;71.20;101248.53;4903845;28;20076;-87
2022/05/14 00:37:47;;;;;;;4.60;2.85;;;;;;;11.79;72.40;101245.13;4950741;28;20340;-87
2022/05/14 00:40:19;;;;;;;6.55;2.80;;;;;;;11.86;72.51;101245.97;4907382;28;20056;-86
2022/05/14 00:42:46;;;;;;;4.60;2.40;;;;;;;11.97;72.31;101249.47;4920112;28;20132;-86
2022/05/14 00:45:16;;;;;;;8.60;2.88;;;;;;;12.09;71.82;101253.75;4903504;28;20048;-86
2022/05/14 00:47:47;;;;;;;5.43;2.25;;;;;;;12.16;70.88;101244.09;4908683;28;20048;-85
2022/05/14 00:50:48;;;;;;;6.50;2.78;;;;;;;12.21;70.66;101245.81;4910989;28;20055;-85
2022/05/14 00:53:37;;;;;;;6.53;2.58;;;;;;;12.21;70.77;101244.94;4959169;28;20060;-87
2022/05/14 00:56:10;;;;;;;5.22;2.42;;;;;;;12.20;70.70;101249.34;4918925;28;20064;-84
2022/05/14 00:58:55;;;;;;;4.65;2.85;;;;;;;12.19;70.49;101249.31;4927817;28;20040;-87
2022/05/14 01:01:21;;;;;;;11.65;3.17;;;;;;;12.22;70.35;101244.06;4907907;28;20146;-86
2022/05/14 01:03:49;;;;;;;6.88;3.03;;;;;;;12.27;70.60;101244.03;4898957;28;20056;-86
2022/05/14 01:06:19;;;;;;;8.80;3.10;;;;;;;12.30;70.47;101239.63;4913364;28;20060;-85
2022/05/14 01:08:47;;;;;;;6.90;2.70;;;;;;;12.33;70.18;101244.00;4903532;28;20060;-85
2022/05/14 01:11:15;;;;;;;7.72;2.85;;;;;;;12.32;69.97;101237.88;4902190;28;20078;-87
2022/05/14 01:13:42;;;;;;;5.40;2.10;;;;;;;12.33;70.21;101233.50;4940112;28;20445;-86
2022/05/14 01:16:09;;;;;;;4.70;2.95;;;;;;;12.36;69.98;101236.97;4911250;28;20195;-86
2022/05/14 01:18:38;;;;;;;7.97;4.53;;;;;;;12.33;70.14;101234.38;4914028;28;20139;-86
2022/05/14 01:21:25;;;;;;;6.18;3.25;;;;;;;12.29;70.26;101231.78;4902701;28;20045;-85
2022/05/14 01:27:11;;;;;;;6.32;2.60;;;;;;;12.20;70.87;101243.19;4915671;28;20152;-86
2022/05/14 01:32:20;;;;;;;2.75;2.35;;;;;;;12.14;71.05;101235.38;4972295;28;20083;-85
2022/05/14 01:34:46;;;;;;;5.63;3.13;;;;;;;12.13;71.01;101234.50;4919621;28;20901;-86
2022/05/14 01:37:14;;;;;;;5.30;2.42;;;;;;;12.17;71.00;101240.59;4921220;28;20561;-86
2022/05/14 01:39:41;;;;;;;6.10;2.38;;;;;;;12.19;70.59;101233.56;4914672;28;20052;-86
2022/05/14 01:42:07;;;;;;;5.20;3.13;;;;;;;12.22;70.65;101234.44;4934673;28;20044;-87
2022/05/14 01:44:34;;;;;;;3.05;2.40;;;;;;;12.23;70.62;101235.31;4896123;28;20045;-84
2022/05/14 01:47:01;;;;;;;4.68;2.53;;;;;;;12.21;71.00;101230.06;4962570;28;20458;-87
2022/05/14 01:49:28;;;;;;;5.72;2.20;;;;;;;12.19;70.94;101233.56;4997442;28;20148;-86
2022/05/14 01:51:56;;;;;;;4.97;2.78;;;;;;;12.19;71.36;101237.09;4913929;28;20044;-87
2022/05/14 01:54:22;;;;;;;6.10;2.17;;;;;;;12.17;70.98;101232.72;4911724;28;20062;-86
2022/05/14 01:56:49;;;;;;;4.55;2.53;;;;;;;12.19;70.99;101234.47;4915723;28;20044;-87
2022/05/14 01:59:17;;;;;;;4.95;2.20;;;;;;;12.23;70.99;101224.81;4915843;28;20057;-84
2022/05/14 02:01:44;;;;;;;4.60;2.20;;;;;;;12.29;70.81;101229.16;4924030;28;20060;-84
2022/05/14 02:04:16;;;;;;;5.53;2.08;;;;;;;12.29;70.72;101230.00;4975368;28;20042;-84
2022/05/14 02:06:45;;;;;;;7.72;2.97;;;;;;;12.27;70.55;101228.28;4958696;28;20183;-86
2022/05/14 02:09:15;;;;;;;6.07;2.40;;;;;;;12.21;71.56;101227.44;4921933;28;20048;-85
2022/05/14 02:11:43;;;;;;;5.38;2.63;;;;;;;12.16;71.66;101221.38;4913417;28;20052;-85
2022/05/14 02:14:13;;;;;;;5.03;3.05;;;;;;;12.05;71.50;101220.56;4918852;28;20106;-86
2022/05/14 02:16:40;;;;;;;3.72;2.25;;;;;;;11.90;72.18;101214.47;4898889;28;20062;-86
2022/05/14 02:19:07;;;;;;;6.97;2.80;;;;;;;11.80;72.52;101225.91;4909070;28;20126;-85
2022/05/14 02:21:35;;;;;;;6.00;2.85;;;;;;;11.70;73.15;101218.94;4912543;28;20041;-87
2022/05/14 02:24:02;;;;;;;4.43;3.03;;;;;;;11.59;73.83;101224.25;4914040;28;20048;-85
2022/05/14 02:26:29;;;;;;;7.55;2.67;;;;;;;11.49;74.33;101217.28;4909553;28;20257;-85
2022/05/14 02:28:57;;;;;;;4.43;3.13;;;;;;;11.38;74.76;101219.94;4996132;28;20047;-86
2022/05/14 02:31:26;;;;;;;10.52;2.70;;;;;;;11.30;75.31;101219.94;4909148;28;20458;-86
2022/05/14 02:33:52;;;;;;;4.63;2.92;;;;;;;11.28;76.50;101219.09;4915308;28;20437;-87
2022/05/14 02:36:19;;;;;;;7.85;3.00;;;;;;;11.32;75.94;101217.34;4908940;28;20048;-87
2022/05/14 02:38:46;;;;;;;7.65;3.20;;;;;;;11.33;76.10;101209.47;4914945;28;20090;-86
2022/05/14 02:41:13;;;;;;;10.32;3.50;;;;;;;11.31;75.87;101212.97;4910032;28;20054;-85
2022/05/14 02:43:41;;;;;;;5.53;3.38;;;;;;;11.28;76.65;101219.09;4897582;28;20047;-86
2022/05/14 02:46:09;;;;;;;5.10;2.95;;;;;;;11.26;76.34;101215.59;4913811;28;20055;-86
2022/05/14 02:48:36;;;;;;;6.82;3.08;;;;;;;11.23;76.37;101219.09;4900875;28;20679;-86
2022/05/14 02:51:03;;;;;;;7.18;2.55;;;;;;;11.19;76.68;101220.00;4951212;28;20215;-85
2022/05/14 02:53:30;;;;;;;4.47;2.70;;;;;;;11.15;76.38;101210.41;4926511;28;20063;-86
2022/05/14 02:55:57;;;;;;;7.65;2.75;;;;;;;11.15;77.14;101214.78;4935564;28;20061;-85
2022/05/14 03:01:09;;;;;;;6.93;2.85;;;;;;;11.03;76.94;101220.88;4903096;28;20089;-86
2022/05/14 03:03:37;;;;;;;7.13;3.45;;;;;;;10.95;77.34;101220.03;4913376;28;20052;-86
2022/05/14 03:06:06;;;;;;;5.20;2.95;;;;;;;10.91;77.60;101221.78;4919764;28;20194;-87
2022/05/14 03:08:33;;;;;;;9.77;2.88;;;;;;;10.90;77.68;101225.31;4908520;28;20102;-84
2022/05/14 03:11:00;;;;;;;6.25;3.03;;;;;;;10.86;77.56;101232.28;4970115;28;20116;-85
2022/05/14 03:13:27;;;;;;;3.10;2.60;;;;;;;10.83;78.11;101236.63;4914573;28;20071;-87
2022/05/14 03:15:53;;;;;;;8.00;3.63;;;;;;;10.81;78.01;101233.13;4916578;28;20071;-87
2022/05/14 03:18:22;;;;;;;9.35;3.30;;;;;;;10.79;78.35;101234.91;4904070;28;20063;-85
2022/05/14 03:20:50;;;;;;;4.50;2.42;;;;;;;10.74;78.14;101224.41;4917744;28;20167;-87
2022/05/14 03:23:16;;;;;;;4.75;2.88;;;;;;;10.67;78.64;101226.16;4910046;28;20052;-86
2022/05/14 03:25:45;;;;;;;10.55;2.70;;;;;;;10.64;78.84;101228.78;4934750;28;20116;-86
2022/05/14 03:28:12;;;;;;;6.28;2.65;;;;;;;10.65;79.44;101227.94;4903398;28;20047;-85
2022/05/14 03:30:39;;;;;;;5.93;2.83;;;;;;;10.69;79.05;101227.06;4901253;28;20503;-85
2022/05/14 03:33:07;;;;;;;6.65;2.75;;;;;;;10.75;79.13;101226.16;4915926;28;20079;-85
2022/05/14 03:35:34;;;;;;;7.93;3.28;;;;;;;10.82;78.49;101229.66;4911809;28;20123;-85
2022/05/14 03:38:03;;;;;;;9.15;2.92;;;;;;;10.87;77.78;101218.31;4909046;28;20056;-87
2022/05/14 03:40:29;;;;;;;9.18;2.97;;;;;;;10.92;77.47;101223.53;4923386;28;20044;-85
2022/05/14 03:42:56;;;;;;;5.00;2.85;;;;;;;10.91;77.49;101217.44;4930819;28;20048;-86
2022/05/14 03:45:23;;;;;;;2.90;2.50;;;;;;;10.91;77.39;101225.28;4933393;28;20198;-87
2022/05/14 03:47:49;;;;;;;5.85;2.30;;;;;;;10.91;77.48;101227.03;4940291;28;20060;-86
2022/05/14 03:50:16;;;;;;;7.35;2.97;;;;;;;10.92;77.20;101224.44;4923561;28;20513;-86
2022/05/14 03:52:43;;;;;;;3.58;2.80;;;;;;;10.88;77.22;101224.41;4925694;28;20151;-87
2022/05/14 03:55:10;;;;;;;8.63;3.53;;;;;;;10.87;77.63;101235.75;4920185;28;20048;-86
2022/05/14 03:57:37;;;;;;;8.63;2.30;;;;;;;10.87;77.19;101227.91;4913947;28;20056;-87
2022/05/14 04:00:07;;;;;;;3.70;2.60;;;;;;;10.91;77.21;101230.53;4947819;28;20112;-87
2022/05/14 04:02:34;;;;;;;7.25;3.00;;;;;;;10.91;77.08;101233.16;4907538;28;20143;-84
2022/05/14 04:05:01;;;;;;;5.45;2.58;;;;;;;10.93;76.87;101236.63;4922111;28;20091;-84
2022/05/14 04:07:30;;;;;;;10.43;3.80;;;;;;;10.98;76.69;101243.63;4925958;28;20042;-86
2022/05/14 04:09:57;;;;;;;11.73;3.17;;;;;;;11.03;76.19;101242.75;4936291;28;20149;-86
2022/05/14 04:12:23;;;;;;;6.72;2.83;;;;;;;11.08;76.22;101240.97;4924023;28;20108;-86
2022/05/14 04:14:50;;;;;;;6.28;2.55;;;;;;;11.17;75.67;101242.72;4902536;28;20056;-87
2022/05/14 04:17:17;;;;;;;6.18;3.70;;;;;;;11.25;75.12;101243.56;4904282;28;20040;-86
2022/05/14 04:19:44;;;;;;;8.23;3.58;;;;;;;11.29;75.04;101240.94;4925414;28;20158;-86
2022/05/14 04:22:11;;;;;;;6.00;2.75;;;;;;;11.40;74.30;101237.41;4957523;28;20596;-86
2022/05/14 04:24:37;;;;;;;7.07;3.00;;;;;;;11.45;74.12;101253.13;4930460;28;20471;-84
2022/05/14 04:27:04;;;;;;;8.23;2.97;;;;;;;11.53;74.04;101251.34;4944478;28;20040;-86
2022/05/14 04:29:31;;;;;;;9.48;3.20;;;;;;;11.58;73.52;101246.97;4916150;28;20463;-86
2022/05/14 04:31:58;;;;;;;7.78;3.67;;;;;;;11.61;73.34;101240.84;4927400;28;20048;-87
2022/05/14 04:34:25;;;;;;;6.95;4.53;;;;;;;11.64;73.31;101256.56;4934624;28;20059;-86
2022/05/14 04:36:52;;;;;;;6.65;2.88;;;;;;;11.60;73.50;101257.44;4954868;28;20052;-85
2022/05/14 04:39:19;;;;;;;4.80;2.65;;;;;;;11.58;73.79;101260.06;5011184;28;20067;-84
2022/05/14 04:41:46;;;;;;;8.45;3.10;;;;;;;11.59;73.87;101258.34;4938269;28;20118;-85
2022/05/14 04:44:13;;;;;;;6.72;3.13;;;;;;;11.59;73.93;101258.34;4935156;28;20055;-86
2022/05/14 04:46:40;;;;;;;7.80;3.00;;;;;;;11.58;74.23;101264.47;4920184;28;20044;-88
2022/05/14 04:49:06;;;;;;;7.20;3.20;;;;;;;11.62;74.14;101262.69;4932142;28;20118;-85
2022/05/14 04:51:33;;;;;;;5.00;2.92;;;;;;;11.66;74.16;101262.66;4917709;28;20030;-87
2022/05/14 04:54:00;;;;;;;9.05;3.05;;;;;;;11.68;74.06;101271.41;4913315;28;20110;-87
2022/05/14 04:56:26;;;;;;;6.93;3.22;;;;;;;11.73;74.10;101267.03;4932031;28;20036;-87
2022/05/14 04:58:53;;;;;;;12.35;3.58;;;;;;;11.78;74.12;101264.38;4924742;28;20063;-87
2022/05/14 05:01:20;;;;;;;8.68;3.20;;;;;;;11.83;73.87;101274.84;4939257;28;20114;-86
2022/05/14 05:03:45;;;;;;;9.43;4.13;;;;;;;11.88;73.81;101281.81;4918165;28;20123;-87
2022/05/14 05:06:14;;;;;;;7.25;3.70;;;;;;;11.93;73.83;101294.94;4926462;28;20088;-86
2022/05/14 05:08:42;;;;;;;4.43;3.00;;;;;;;11.94;73.86;101290.53;4958510;28;20138;-86
2022/05/14 05:11:09;;;;;;;6.55;3.40;;;;;;;11.98;73.79;101279.19;4923436;28;20119;-88
2022/05/14 05:13:38;;;;;;;5.80;2.97;;;;;;;12.02;73.66;101289.66;4933119;28;20083;-87
2022/05/14 05:16:06;;;;;;;5.88;3.50;;;;;;;12.03;73.87;101288.78;4929317;28;20064;-87
2022/05/14 05:18:34;;;;;;;9.52;3.50;;;;;;;12.06;73.79;101296.63;4932846;28;20127;-86
2022/05/14 05:21:01;;;;;;;7.63;3.63;;;;;;;12.14;73.77;101298.38;4960421;28;20134;-86
2022/05/14 05:23:28;;;;;;;8.82;3.72;;;;;;;12.15;73.75;101300.09;4959016;28;20055;-85
2022/05/14 05:26:00;;;;;;;7.72;3.67;;;;;;;12.14;73.85;101301.84;4939133;28;20063;-85
2022/05/14 05:28:30;;;;;;;9.68;3.50;;;;;;;12.19;74.05;101299.19;4934730;28;20048;-87
2022/05/14 05:30:56;;;;;;;14.13;3.85;;;;;;;12.20;73.85;101299.22;4926069;28;20050;-87
2022/05/14 05:33:26;;;;;;;6.30;3.60;;;;;;;12.22;73.94;101299.19;4917411;28;20054;-86
2022/05/14 05:35:54;;;;;;;8.90;3.53;;;;;;;12.24;73.88;101302.66;4934582;28;20670;-89
2022/05/14 05:38:21;;;;;;;8.07;3.15;;;;;;;12.27;74.17;101314.91;4919553;28;20055;-87
2022/05/14 05:40:50;;;;;;;7.93;3.85;;;;;;;12.33;74.09;101304.38;4919621;28;20052;-87
2022/05/14 05:43:18;;;;;;;7.32;3.85;;;;;;;12.43;73.84;101307.84;4955276;28;20043;-87
2022/05/14 05:45:49;;;;;;;9.48;3.50;;;;;;;12.45;73.69;101312.19;4882897;28;20120;-87
2022/05/14 05:48:19;;;;;;;7.97;3.40;;;;;;;12.51;73.92;101309.50;4927921;28;20129;-85
2022/05/14 05:50:48;;;;;;;6.03;3.28;;;;;;;12.55;73.78;101313.88;4928513;28;20047;-86
2022/05/14 05:53:16;;;;;;;6.40;3.13;;;;;;;12.61;73.53;101315.59;4939192;28;20078;-87
2022/05/14 05:58:28;;;;;;;8.00;4.50;;;;;;;12.74;73.05;101314.59;4924591;28;20040;-86
2022/05/14 06:01:09;;;;;;;13.98;4.55;;;;;;;12.78;72.88;101325.13;4993497;28;20046;-84
2022/05/14 06:03:36;;;;;;;5.95;3.38;;;;;;;12.86;72.97;101326.78;4926442;28;20059;-85
2022/05/14 06:06:05;;;;;;;11.30;4.15;;;;;;;12.90;72.68;101325.00;4951685;28;20048;-84
2022/05/14 06:08:32;;;;;;;11.27;5.22;;;;;;;12.93;72.97;101332.84;4951944;28;20049;-85
2022/05/14 06:10:59;;;;;;;11.27;4.32;;;;;;;12.99;72.97;101330.19;4973056;28;20462;-87
2022/05/14 06:13:33;;;;;;;10.45;3.67;;;;;;;13.07;72.96;101331.00;4913770;28;20040;-87
2022/05/14 06:16:01;;;;;;;10.35;4.65;;;;;;;13.15;72.24;101328.28;4924156;28;20048;-85
2022/05/14 06:18:28;;;;;;;7.40;3.92;;;;;;;13.19;72.16;101326.50;4937412;28;20096;-85
2022/05/14 06:20:55;;;;;;;12.88;3.60;;;;;;;13.22;72.01;101332.63;4927855;28;20044;-86
2022/05/14 06:23:21;;;;;;;9.52;4.30;;;;;;;13.27;72.54;101331.69;4906467;28;20120;-86
2022/05/14 06:25:48;;;;;;;10.45;4.18;;;;;;;13.35;71.75;101335.13;4933540;28;20096;-86
2022/05/14 06:28:15;;;;;;;12.45;3.92;;;;;;;13.35;72.31;101330.75;4951337;28;20072;-86
2022/05/14 06:30:43;;;;;;;8.07;3.85;;;;;;;13.41;72.11;101337.72;4951159;28;20078;-85
2022/05/14 06:33:11;;;;;;;13.25;3.58;;;;;;;13.55;71.59;101333.19;4909195;28;20063;-85
2022/05/14 06:35:40;;;;;;;9.90;3.78;;;;;;;13.56;70.81;101334.09;4940344;28;20049;-88
2022/05/14 06:38:08;;;;;;;13.88;4.70;;;;;;;13.56;71.45;101337.59;4958485;28;20046;-86
2022/05/14 06:40:37;;;;;;;12.52;6.20;;;;;;;13.64;71.45;101339.28;4984676;28;20056;-87
2022/05/14 06:43:05;;;;;;;8.85;3.58;;;;;;;13.70;71.21;101347.06;4934856;28;20041;-86
2022/05/14 06:45:32;;;;;;;13.88;5.00;;;;;;;13.77;70.63;101350.53;4936921;28;20048;-85
2022/05/14 06:47:59;;;;;;;14.40;4.57;;;;;;;13.83;70.58;101338.19;4934337;28;20039;-86
2022/05/14 06:50:28;;;;;;;15.25;4.85;;;;;;;13.84;70.39;101344.31;4896151;28;20419;-87
2022/05/14 06:53:01;;;;;;;12.65;3.83;;;;;;;13.92;70.21;101344.22;4928737;28;20056;-88
2022/05/14 06:55:36;;;;;;;11.35;4.85;;;;;;;13.99;69.57;101351.16;4940209;28;20100;-86
2022/05/14 06:58:03;;;;;;;12.10;4.82;;;;;;;14.06;69.36;101339.66;4946385;28;20063;-84
2022/05/14 07:00:30;;;;;;;11.45;4.57;;;;;;;14.09;69.35;101350.13;4925743;28;20126;-86
2022/05/14 07:06:37;;;;;;;10.52;4.35;;;;;;;14.25;68.90;101350.84;4922189;28;20521;-88
2022/05/14 07:08:30;;;;;;;12.88;6.00;;;;;;;15.15;64.87;101346.91;4932820;28;20043;-86
2022/05/14 07:10:57;;;;;;;13.85;5.18;;;;;;;15.18;64.85;101349.47;4924871;28;20079;-86
2022/05/14 07:13:24;;;;;;;12.68;4.28;;;;;;;15.22;65.07;101354.66;4910039;28;20052;-86
2022/05/14 07:15:51;;;;;;;18.30;5.20;;;;;;;15.41;64.74;101351.72;4896679;28;20610;-85
2022/05/14 07:18:18;;;;;;;10.02;4.60;;;;;;;15.94;63.21;101342.84;4923784;28;20049;-85
2022/05/14 07:20:46;;;;;;;12.90;5.07;;;;;;;16.38;61.18;101348.94;4947878;28;20057;-85
2022/05/14 07:23:13;;;;;;;13.40;5.20;;;;;;;16.46;60.36;101354.91;4960963;28;20078;-86
2022/05/14 07:25:40;;;;;;;12.50;4.95;;;;;;;16.43;60.93;101355.00;4911064;28;20052;-88
2022/05/14 07:28:09;;;;;;;11.68;5.00;;;;;;;16.72;60.69;101360.53;4924076;28;20096;-87
2022/05/14 07:30:37;;;;;;;16.77;5.03;;;;;;;16.87;59.21;101363.69;4918357;28;20051;-85
2022/05/14 07:33:05;;;;;;;13.05;4.78;;;;;;;16.98;59.22;101360.78;4924621;28;20048;-85
2022/05/14 07:35:33;;;;;;;16.05;5.00;;;;;;;17.11;58.82;101361.38;4905884;28;20052;-90
2022/05/14 07:38:04;;;;;;;11.82;4.25;;;;;;;17.31;58.29;101374.13;4927356;28;20088;-86
2022/05/14 07:40:34;;;;;;;9.27;4.30;;;;;;;17.52;57.61;101366.50;4967360;28;20053;-86
2022/05/14 07:43:11;;;;;;;10.23;3.92;;;;;;;17.59;57.19;101370.72;4928873;28;20098;-86
2022/05/14 07:45:58;;;;;;;13.43;4.53;;;;;;;18.05;56.06;101365.09;4920818;28;20128;-89
2022/05/14 07:48:37;;;;;;;11.65;4.63;;;;;;;18.51;54.19;101356.66;4903813;28;20048;-88
2022/05/14 07:51:08;;;;;;;9.30;4.88;;;;;;;18.33;54.35;101363.38;4940299;28;20174;-85
2022/05/14 07:53:36;;;;;;;14.10;5.10;;;;;;;18.23;55.17;101361.06;4923674;28;20040;-85
2022/05/14 07:56:08;;;;;;;12.27;5.80;;;;;;;18.51;54.21;101361.94;4904697;28;20044;-86
2022/05/14 07:58:37;;;;;;;15.95;4.65;;;;;;;19.10;53.13;101372.50;4918736;28;20078;-87
2022/05/14 08:01:04;;;;;;;14.05;4.65;;;;;;;19.38;51.73;101366.28;4914999;28;20479;-86
2022/05/14 08:03:32;;;;;;;13.45;4.28;;;;;;;19.53;50.54;101370.16;4918832;28;20048;-84
2022/05/14 08:05:59;;;;;;;18.95;4.88;;;;;;;19.83;50.51;101368.25;4917771;28;20130;-86
2022/05/14 08:08:28;;;;;;;7.38;3.83;;;;;;;20.26;49.06;101371.09;4917712;28;20044;-85
2022/05/14 08:10:55;;;;;;;7.70;3.72;;;;;;;20.71;48.56;101369.41;4917875;28;20055;-85
2022/05/14 08:13:25;;;;;;;11.43;3.92;;;;;;;21.39;47.24;101369.25;4921184;28;20052;-84
2022/05/14 08:15:53;;;;;;;12.07;4.90;;;;;;;21.73;46.04;101384.69;4906775;28;20522;-87
2022/05/14 08:18:20;;;;;;;10.30;4.65;;;;;;;21.73;46.37;101374.03;4929477;28;20060;-86
2022/05/14 08:20:50;;;;;;;10.73;4.10;;;;;;;21.79;45.45;101372.88;4919402;28;20125;-84
2022/05/14 08:26:04;;;;;;;12.50;4.00;;;;;;;22.46;43.13;101366.25;4924838;28;20048;-85
2022/05/14 08:28:32;;;;;;;8.23;3.70;;;;;;;21.80;44.40;101369.28;4940990;28;20036;-85
2022/05/14 08:31:00;;;;;;;12.68;4.15;;;;;;;22.03;43.71;101372.69;4954975;28;20048;-87
2022/05/14 08:33:28;;;;;;;7.55;3.65;;;;;;;22.52;43.05;101357.09;4908480;28;20577;-86
2022/05/14 08:35:55;;;;;;;9.45;3.92;;;;;;;23.18;41.29;101378.81;4931937;28;20048;-85
2022/05/14 08:38:23;;;;;;;10.52;3.72;;;;;;;23.48;41.02;101373.75;4918865;28;20067;-84
2022/05/14 08:41:00;;;;;;;10.43;4.45;;;;;;;23.80;39.30;101376.50;4935123;28;20048;-85
2022/05/14 08:43:59;;;;;;;11.50;4.20;;;;;;;23.37;39.64;101376.09;4916718;28;20056;-84
2022/05/14 08:46:28;;;;;;;9.85;4.30;;;;;;;23.13;41.07;101379.03;4932959;28;20041;-85
2022/05/14 08:49:07;;;;;;;11.80;3.92;;;;;;;23.76;40.22;101380.31;4910599;28;20048;-88
2022/05/14 08:51:36;;;;;;;12.10;4.43;;;;;;;24.16;38.30;101378.19;4938279;28;20054;-86
2022/05/14 08:54:04;;;;;;;13.75;4.95;;;;;;;23.35;39.41;101383.31;4939902;28;20135;-86
2022/05/14 08:56:47;;;;;;;7.60;4.15;;;;;;;22.61;41.59;101395.81;4911517;28;20055;-86
2022/05/14 08:59:35;;;;;;;9.23;4.43;;;;;;;23.03;40.53;101388.44;4935762;28;20079;-87
2022/05/14 09:02:13;;;;;;;9.65;4.57;;;;;;;23.07;41.07;101380.19;4893140;28;20683;-87
2022/05/14 09:04:39;;;;;;;10.73;4.47;;;;;;;22.66;42.07;101379.56;4931272;28;20755;-86
2022/05/14 09:07:06;;;;;;;12.75;4.00;;;;;;;22.37;42.34;101380.03;4928499;28;20407;-86
2022/05/14 09:09:33;;;;;;;11.85;5.15;;;;;;;22.30;42.24;101384.72;4915432;28;20054;-87
2022/05/14 09:12:04;;;;;;;16.50;5.70;;;;;;;22.83;41.04;101386.75;4938509;28;20048;-85
2022/05/14 09:14:39;;;;;;;11.95;5.20;;;;;;;23.79;39.75;101378.34;4930365;28;20071;-86
2022/05/14 09:17:20;;;;;;;11.27;4.75;;;;;;;24.34;38.12;101381.66;4943062;28;20044;-86
2022/05/14 09:19:50;;;;;;;11.52;4.22;;;;;;;23.60;39.46;101380.25;4909332;28;20067;-87
2022/05/14 09:22:30;;;;;;;13.00;4.07;;;;;;;22.49;41.09;101383.03;4913009;28;20067;-88
2022/05/14 09:25:14;;;;;;;9.27;4.50;;;;;;;22.16;42.09;101387.19;4926975;28;20059;-86
2022/05/14 09:27:59;;;;;;;10.18;4.40;;;;;;;23.06;40.87;101389.16;4895753;28;20056;-86
2022/05/14 09:30:36;;;;;;;11.02;4.32;;;;;;;24.14;39.47;101387.25;4939445;28;20140;-86
2022/05/14 09:33:06;;;;;;;9.43;4.47;;;;;;;24.11;38.77;101380.25;4893987;28;20701;-87
2022/05/14 09:38:23;;;;;;;10.73;4.63;;;;;;;25.38;36.61;101381.13;4940906;28;20087;-85
2022/05/14 09:40:52;;;;;;;10.75;4.43;;;;;;;25.50;36.57;101388.47;4941179;28;20460;-88
2022/05/14 09:43:19;;;;;;;12.85;4.07;;;;;;;25.89;34.91;101380.72;4914696;28;20055;-87
2022/05/14 09:46:13;;;;;;;14.68;3.92;;;;;;;25.82;35.05;101382.94;4934800;28;20152;-87
2022/05/14 09:48:52;;;;;;;;;;;;;;;25.65;34.53;101392.00;4914995;28;20653;-85
2022/05/14 09:51:36;;;;;;;11.77;3.90;;;;;;;25.58;35.20;101386.16;4915810;28;20415;-86
2022/05/14 09:54:23;;;;;;;11.02;3.47;;;;;;;24.77;36.40;101384.63;4908370;28;20080;-88
2022/05/14 09:57:48;;;;;;;10.15;3.53;;;;;;;24.38;37.22;101385.91;4941774;28;21443;-86
2022/05/14 10:00:36;;;;;;;13.07;4.10;;;;;;;24.28;36.83;101382.00;4929829;28;20075;-87
2022/05/14 10:03:20;;;;;;;11.57;4.10;;;;;;;23.62;37.92;101394.38;4919879;28;20048;-85
2022/05/14 10:05:54;;;;;;;14.10;4.75;;;;;;;22.87;39.28;101391.03;4926885;28;20063;-92
2022/05/14 10:08:54;;;;;;;9.20;3.65;;;;;;;22.92;39.38;101387.19;4921059;28;20121;-88
2022/05/14 10:11:36;;;;;;;13.05;4.13;;;;;;;22.61;40.16;101388.66;4956164;28;20068;-89
2022/05/14 10:14:24;;;;;;;12.73;4.78;;;;;;;22.34;40.77;101388.13;4933428;28;20055;-88
2022/05/14 10:17:23;;;;;;;17.60;5.50;;;;;;;23.06;39.72;101389.16;4935114;28;20056;-88
2022/05/14 10:20:14;;;;;;;8.40;3.75;;;;;;;24.41;37.42;101385.72;4927935;28;20064;-89
2022/05/14 10:26:46;;;;;;;11.77;5.15;;;;;;;25.95;33.89;101384.88;4915339;28;20048;-85
2022/05/14 10:29:47;;;;;;;10.60;3.72;;;;;;;24.81;35.98;101384.44;4934174;28;20068;-90
2022/05/14 10:32:19;;;;;;;9.95;3.75;;;;;;;23.45;38.36;101396.13;4942586;28;20041;-89
2022/05/14 10:35:10;;;;;;;10.82;3.63;;;;;;;22.75;39.58;101393.34;4949991;28;20054;-90
2022/05/14 10:37:58;;;;;;;10.98;4.03;;;;;;;22.74;39.84;101391.59;4913724;28;20052;-87
2022/05/14 10:40:37;;;;;;;14.45;3.97;;;;;;;22.53;40.00;101397.97;4941535;28;20048;-87
2022/05/14 10:43:22;;;;;;;9.57;3.63;;;;;;;22.68;39.56;101396.38;4924719;28;20048;-88
2022/05/14 10:45:56;;;;;;;13.93;4.30;;;;;;;24.22;37.65;101387.69;4928578;28;20190;-88
2022/05/14 10:49:06;;;;;;;14.77;3.92;;;;;;;26.61;32.95;101393.22;4977105;28;20055;-86
2022/05/14 10:51:43;;;;;;;9.57;4.00;;;;;;;27.75;31.24;101382.94;4930520;28;20042;-87
2022/05/14 10:57:14;;;;;;;9.95;3.20;;;;;;;29.46;28.59;101380.31;5114160;27;20386;-82
2022/05/14 10:59:47;;;;;;;11.60;3.72;;;;;;;29.94;27.59;101391.97;5097509;28;20055;-81
2022/05/14 11:02:35;;;;;;;16.00;4.63;;;;;;;28.74;28.42;101386.66;5100350;28;20043;-84
2022/05/14 11:05:05;;;;;;;12.45;4.05;;;;;;;28.60;29.02;101386.78;5095861;28;20468;-83
2022/05/14 11:07:39;;;;;;;9.40;3.58;;;;;;;28.63;28.51;101387.44;5100926;28;20476;-85
2022/05/14 11:10:28;;;;;;;9.13;3.85;;;;;;;28.65;28.99;101385.50;5082283;28;20040;-83
2022/05/14 11:12:55;;;;;;;10.60;3.72;;;;;;;29.36;27.58;101390.97;5103351;28;20567;-84
2022/05/14 11:15:33;;;;;;;11.63;3.50;;;;;;;28.74;28.29;101389.34;5104230;28;20508;-84
2022/05/14 11:18:16;;;;;;;12.32;3.70;;;;;;;27.63;29.99;101386.50;5090532;28;20475;-84
2022/05/14 11:21:09;;;;;;;7.95;3.50;;;;;;;28.95;28.72;101389.56;5101556;28;20052;-83
2022/05/14 11:23:50;;;;;;;11.63;3.58;;;;;;;30.40;26.81;101385.53;5097755;28;20048;-83
2022/05/14 11:26:18;;;;;;;10.80;4.03;;;;;;;31.38;25.63;101389.16;5077653;28;20044;-85
2022/05/14 11:29:00;;;;;;;11.27;4.20;;;;;;;31.73;24.33;101379.00;5075602;28;20592;-84
2022/05/14 11:31:33;;;;;;;12.63;3.92;;;;;;;31.41;24.77;101372.66;5058843;28;20052;-84
2022/05/14 11:34:16;;;;;;;7.35;3.60;;;;;;;30.08;26.62;101383.59;5074602;28;20044;-82
2022/05/14 11:36:51;;;;;;;14.65;3.88;;;;;;;30.86;24.85;101378.19;5074875;28;20119;-84
2022/05/14 11:39:21;;;;;;;12.40;3.40;;;;;;;29.87;24.97;101378.09;5061676;28;20098;-86
2022/05/14 11:42:06;;;;;;;9.07;3.25;;;;;;;27.41;28.00;101387.97;5074905;28;20072;-83
2022/05/14 11:44:47;;;;;;;11.93;4.15;;;;;;;25.88;30.39;101387.91;5062217;28;20052;-85
2022/05/14 11:47:44;;;;;;;9.82;3.42;;;;;;;24.37;32.61;101376.13;5085203;28;20109;-85
2022/05/14 11:50:14;;;;;;;8.50;3.42;;;;;;;25.93;31.00;101383.13;5079456;28;20244;-83
2022/05/14 11:53:13;;;;;;;12.43;3.45;;;;;;;27.33;28.56;101382.22;5080004;28;20052;-84
2022/05/14 11:55:49;;;;;;;10.30;2.88;;;;;;;26.41;29.63;101381.97;5057468;28;20077;-83
2022/05/14 11:58:35;;;;;;;10.75;4.18;;;;;;;27.74;28.59;101378.50;5003478;28;20073;-86
2022/05/14 12:01:08;;;;;;;11.52;3.95;;;;;;;29.70;25.75;101391.03;5015348;28;20326;-83
2022/05/14 12:03:43;;;;;;;7.68;3.63;;;;;;;30.10;25.10;101376.22;5001338;28;20042;-83
2022/05/14 12:06:52;;;;;;;9.00;3.75;;;;;;;30.89;23.48;101379.78;4994764;28;20073;-84
2022/05/14 12:09:40;;;;;;;9.20;3.10;;;;;;;31.80;23.40;101367.50;5088311;27;20042;-83
2022/05/14 12:12:29;;;;;;;8.95;3.03;;;;;;;33.27;22.19;101367.78;4999094;28;20046;-83
2022/05/14 12:14:58;;;;;;;9.73;3.38;;;;;;;32.98;21.51;101370.50;4978548;28;20046;-84
2022/05/14 12:17:27;;;;;;;13.75;4.00;;;;;;;32.36;22.27;101375.25;5076491;28;20633;-83
2022/05/14 12:19:57;;;;;;;13.20;3.58;;;;;;;32.33;22.74;101370.97;4992117;28;20061;-83